ARE4027 SKRG-SKBO
Flight info
| Callsign | ARE4027 |
|---|---|
| Flight time | 0h 25m |
| Altitude | 21000 |
| Route | ISVAT2B ISVAT ISVAT5E |
| Aircraft | A320/M-SDE3FGHIRWY/LB1 |
Departure
| Time | 2026-05-09 01:54 |
|---|---|
| Airport | Jose Maria Córdova International Airport (SKRG) |
Arrival
| Time | 2026-05-09 02:20 |
|---|---|
| Airport | El Dorado International Airport (SKBO) |
| Time | Latitude | Longitude | Altitude | Speed | Heading |
|---|---|---|---|---|---|
| 2026-05-09 01:17 | 6.17030 | -75.42713 | 7018 ft | 0 kts | 307° |
| 2026-05-09 01:46 | 6.17019 | -75.42699 | 7020 ft | 4 kts | 321° |
| 2026-05-09 01:46 | 6.16996 | -75.42688 | 7020 ft | 4 kts | 4° |
| 2026-05-09 01:46 | 6.16980 | -75.42693 | 7020 ft | 0 kts | 39° |
| 2026-05-09 01:48 | 6.16982 | -75.42691 | 7018 ft | 2 kts | 39° |
| 2026-05-09 01:48 | 6.17004 | -75.42674 | 7019 ft | 6 kts | 36° |
| 2026-05-09 01:49 | 6.17037 | -75.42643 | 7020 ft | 8 kts | 58° |
| 2026-05-09 01:49 | 6.17020 | -75.42581 | 7015 ft | 12 kts | 143° |
| 2026-05-09 01:49 | 6.16942 | -75.42533 | 7012 ft | 14 kts | 150° |
| 2026-05-09 01:49 | 6.16848 | -75.42487 | 7004 ft | 17 kts | 167° |
| 2026-05-09 01:50 | 6.16717 | -75.42483 | 6993 ft | 20 kts | 179° |
| 2026-05-09 01:50 | 6.16570 | -75.42481 | 6990 ft | 22 kts | 179° |
| 2026-05-09 01:50 | 6.16409 | -75.42480 | 6984 ft | 24 kts | 178° |
| 2026-05-09 01:50 | 6.16251 | -75.42478 | 6979 ft | 20 kts | 180° |
| 2026-05-09 01:51 | 6.16108 | -75.42478 | 6977 ft | 21 kts | 179° |
| 2026-05-09 01:51 | 6.15954 | -75.42477 | 6975 ft | 23 kts | 180° |
| 2026-05-09 01:51 | 6.15792 | -75.42476 | 6975 ft | 24 kts | 180° |
| 2026-05-09 01:51 | 6.15627 | -75.42474 | 6975 ft | 24 kts | 179° |
| 2026-05-09 01:52 | 6.15459 | -75.42473 | 6976 ft | 24 kts | 180° |
| 2026-05-09 01:52 | 6.15289 | -75.42472 | 6977 ft | 25 kts | 180° |
| 2026-05-09 01:52 | 6.15116 | -75.42472 | 6978 ft | 25 kts | 180° |
| 2026-05-09 01:52 | 6.14956 | -75.42471 | 6978 ft | 16 kts | 179° |
| 2026-05-09 01:53 | 6.14887 | -75.42430 | 6976 ft | 13 kts | 96° |
| 2026-05-09 01:53 | 6.14892 | -75.42334 | 6976 ft | 14 kts | 75° |
| 2026-05-09 01:53 | 6.14960 | -75.42299 | 6977 ft | 8 kts | 0° |
| 2026-05-09 01:53 | 6.15104 | -75.42300 | 6980 ft | 48 kts | 359° |
| 2026-05-09 01:54 | 6.15673 | -75.42304 | 6981 ft | 113 kts | 359° |
| 2026-05-09 01:54 | 6.16653 | -75.42311 | 6986 ft | 165 kts | 360° |
| 2026-05-09 01:54 | 6.17885 | -75.42319 | 7433 ft | 177 kts | 1° |
| 2026-05-09 01:54 | 6.19080 | -75.42324 | 8112 ft | 173 kts | 1° |
| 2026-05-09 01:55 | 6.20278 | -75.42327 | 8555 ft | 172 kts | 1° |
| 2026-05-09 01:55 | 6.21485 | -75.42121 | 8765 ft | 185 kts | 30° |
| 2026-05-09 01:55 | 6.22420 | -75.41176 | 8906 ft | 203 kts | 67° |
| 2026-05-09 01:55 | 6.22561 | -75.39756 | 9279 ft | 211 kts | 105° |
| 2026-05-09 01:56 | 6.21859 | -75.38459 | 9803 ft | 213 kts | 123° |
| 2026-05-09 01:56 | 6.21012 | -75.37230 | 10320 ft | 215 kts | 124° |
| 2026-05-09 01:56 | 6.20151 | -75.35994 | 10800 ft | 217 kts | 124° |
| 2026-05-09 01:56 | 6.19283 | -75.34745 | 11292 ft | 219 kts | 124° |
| 2026-05-09 01:57 | 6.18409 | -75.33483 | 11772 ft | 221 kts | 124° |
| 2026-05-09 01:57 | 6.17522 | -75.32209 | 12252 ft | 223 kts | 125° |
| 2026-05-09 01:57 | 6.16434 | -75.31030 | 12462 ft | 241 kts | 139° |
| 2026-05-09 01:57 | 6.14952 | -75.30080 | 12569 ft | 266 kts | 154° |
| 2026-05-09 01:58 | 6.13152 | -75.29376 | 12760 ft | 289 kts | 158° |
| 2026-05-09 01:58 | 6.11197 | -75.28629 | 12936 ft | 312 kts | 158° |
| 2026-05-09 01:58 | 6.09094 | -75.27820 | 13065 ft | 334 kts | 158° |
| 2026-05-09 01:58 | 6.06877 | -75.26964 | 13412 ft | 347 kts | 158° |
| 2026-05-09 01:59 | 6.04625 | -75.26094 | 13992 ft | 353 kts | 158° |
| 2026-05-09 01:59 | 6.02321 | -75.25203 | 14546 ft | 357 kts | 158° |
| 2026-05-09 01:59 | 5.99994 | -75.24300 | 15115 ft | 360 kts | 158° |
| 2026-05-09 01:59 | 5.97642 | -75.23387 | 15668 ft | 364 kts | 158° |
| 2026-05-09 02:00 | 5.95271 | -75.22469 | 16222 ft | 367 kts | 158° |
| 2026-05-09 02:00 | 5.92880 | -75.21541 | 16757 ft | 370 kts | 158° |
| 2026-05-09 02:00 | 5.90456 | -75.20601 | 17288 ft | 374 kts | 159° |
| 2026-05-09 02:00 | 5.88016 | -75.19657 | 17818 ft | 377 kts | 159° |
| 2026-05-09 02:01 | 5.85553 | -75.18707 | 18343 ft | 382 kts | 159° |
| 2026-05-09 02:01 | 5.83062 | -75.17746 | 18813 ft | 385 kts | 159° |
| 2026-05-09 02:01 | 5.80553 | -75.16778 | 19296 ft | 387 kts | 159° |
| 2026-05-09 02:01 | 5.78031 | -75.15804 | 19795 ft | 390 kts | 159° |
| 2026-05-09 02:02 | 5.75488 | -75.14823 | 20288 ft | 392 kts | 159° |
| 2026-05-09 02:02 | 5.72937 | -75.13836 | 20656 ft | 394 kts | 159° |
| 2026-05-09 02:02 | 5.70387 | -75.12849 | 20757 ft | 390 kts | 159° |
| 2026-05-09 02:02 | 5.67909 | -75.11880 | 20784 ft | 375 kts | 158° |
| 2026-05-09 02:03 | 5.65511 | -75.10908 | 20779 ft | 371 kts | 158° |
| 2026-05-09 02:03 | 5.63127 | -75.09920 | 20835 ft | 371 kts | 158° |
| 2026-05-09 02:03 | 5.60761 | -75.08932 | 21060 ft | 372 kts | 158° |
| 2026-05-09 02:03 | 5.58374 | -75.07933 | 21086 ft | 371 kts | 158° |
| 2026-05-09 02:04 | 5.55996 | -75.06940 | 21085 ft | 370 kts | 158° |
| 2026-05-09 02:04 | 5.53609 | -75.05951 | 21070 ft | 370 kts | 158° |
| 2026-05-09 02:04 | 5.51222 | -75.04972 | 21066 ft | 371 kts | 158° |
| 2026-05-09 02:04 | 5.48832 | -75.03993 | 21067 ft | 371 kts | 158° |
| 2026-05-09 02:05 | 5.46444 | -75.03012 | 21065 ft | 371 kts | 158° |
| 2026-05-09 02:05 | 5.44071 | -75.02034 | 20880 ft | 364 kts | 158° |
| 2026-05-09 02:05 | 5.41760 | -75.01081 | 20643 ft | 356 kts | 158° |
| 2026-05-09 02:05 | 5.39476 | -75.00139 | 20408 ft | 352 kts | 158° |
| 2026-05-09 02:06 | 5.37217 | -74.99206 | 20060 ft | 350 kts | 158° |
| 2026-05-09 02:06 | 5.34974 | -74.98263 | 19812 ft | 349 kts | 157° |
| 2026-05-09 02:06 | 5.32744 | -74.97314 | 19570 ft | 347 kts | 157° |
| 2026-05-09 02:07 | 5.28313 | -74.95426 | 19117 ft | 345 kts | 157° |
| 2026-05-09 02:07 | 5.26100 | -74.94487 | 18884 ft | 344 kts | 158° |
| 2026-05-09 02:07 | 5.23894 | -74.93553 | 18662 ft | 343 kts | 157° |
| 2026-05-09 02:07 | 5.21822 | -74.92453 | 18445 ft | 342 kts | 145° |
| 2026-05-09 02:08 | 5.20038 | -74.90890 | 18140 ft | 341 kts | 131° |
| 2026-05-09 02:08 | 5.18667 | -74.88945 | 17541 ft | 341 kts | 119° |
| 2026-05-09 02:08 | 5.17524 | -74.86887 | 17136 ft | 334 kts | 119° |
| 2026-05-09 02:08 | 5.16383 | -74.84858 | 16723 ft | 334 kts | 119° |
| 2026-05-09 02:09 | 5.15242 | -74.82857 | 16550 ft | 329 kts | 120° |
| 2026-05-09 02:09 | 5.14087 | -74.80869 | 16587 ft | 329 kts | 120° |
| 2026-05-09 02:09 | 5.12929 | -74.78891 | 16601 ft | 329 kts | 120° |
| 2026-05-09 02:09 | 5.11771 | -74.76915 | 16614 ft | 329 kts | 120° |
| 2026-05-09 02:10 | 5.10608 | -74.74931 | 16492 ft | 330 kts | 120° |
| 2026-05-09 02:10 | 5.09456 | -74.72954 | 16245 ft | 327 kts | 120° |
| 2026-05-09 02:10 | 5.08314 | -74.70988 | 16016 ft | 325 kts | 120° |
| 2026-05-09 02:10 | 5.07181 | -74.69029 | 15794 ft | 323 kts | 120° |
| 2026-05-09 02:11 | 5.06056 | -74.67083 | 15573 ft | 322 kts | 120° |
| 2026-05-09 02:11 | 5.04935 | -74.65144 | 15345 ft | 320 kts | 120° |
| 2026-05-09 02:11 | 5.03820 | -74.63218 | 15153 ft | 319 kts | 120° |
| 2026-05-09 02:11 | 5.02708 | -74.61298 | 14935 ft | 317 kts | 120° |
| 2026-05-09 02:12 | 5.01613 | -74.59409 | 14721 ft | 316 kts | 120° |
| 2026-05-09 02:12 | 5.00508 | -74.57506 | 14497 ft | 315 kts | 120° |
| 2026-05-09 02:12 | 4.99410 | -74.55615 | 14286 ft | 313 kts | 120° |
| 2026-05-09 02:12 | 4.98316 | -74.53729 | 14054 ft | 312 kts | 119° |
| 2026-05-09 02:13 | 4.97230 | -74.51852 | 13810 ft | 311 kts | 119° |
| 2026-05-09 02:13 | 4.96148 | -74.49981 | 13575 ft | 310 kts | 120° |
| 2026-05-09 02:13 | 4.95065 | -74.48114 | 13404 ft | 309 kts | 120° |
| 2026-05-09 02:13 | 4.93986 | -74.46251 | 13168 ft | 308 kts | 120° |
| 2026-05-09 02:14 | 4.92926 | -74.44422 | 13031 ft | 298 kts | 120° |
| 2026-05-09 02:14 | 4.91898 | -74.42653 | 12920 ft | 289 kts | 121° |
| 2026-05-09 02:14 | 4.90682 | -74.41092 | 12772 ft | 282 kts | 135° |
| 2026-05-09 02:14 | 4.89190 | -74.39803 | 12396 ft | 283 kts | 139° |
| 2026-05-09 02:15 | 4.87697 | -74.38557 | 12053 ft | 274 kts | 140° |
| 2026-05-09 02:15 | 4.86358 | -74.37280 | 11898 ft | 259 kts | 130° |
| 2026-05-09 02:15 | 4.85257 | -74.35905 | 11913 ft | 245 kts | 126° |
| 2026-05-09 02:15 | 4.84264 | -74.34562 | 11963 ft | 235 kts | 125° |
| 2026-05-09 02:16 | 4.83310 | -74.33239 | 11977 ft | 233 kts | 125° |
| 2026-05-09 02:16 | 4.82361 | -74.31917 | 11915 ft | 235 kts | 125° |
| 2026-05-09 02:16 | 4.81418 | -74.30622 | 11636 ft | 230 kts | 126° |
| 2026-05-09 02:16 | 4.80464 | -74.29353 | 11344 ft | 225 kts | 126° |
| 2026-05-09 02:17 | 4.79531 | -74.28121 | 11074 ft | 218 kts | 127° |
| 2026-05-09 02:17 | 4.78623 | -74.26922 | 10818 ft | 213 kts | 127° |
| 2026-05-09 02:17 | 4.77739 | -74.25754 | 10573 ft | 208 kts | 127° |
| 2026-05-09 02:17 | 4.76879 | -74.24618 | 10327 ft | 201 kts | 127° |
| 2026-05-09 02:18 | 4.76062 | -74.23539 | 10084 ft | 186 kts | 127° |
| 2026-05-09 02:18 | 4.75313 | -74.22550 | 9865 ft | 171 kts | 126° |
| 2026-05-09 02:18 | 4.74614 | -74.21626 | 9640 ft | 163 kts | 126° |
| 2026-05-09 02:18 | 4.73942 | -74.20737 | 9400 ft | 161 kts | 126° |
| 2026-05-09 02:19 | 4.73281 | -74.19835 | 9151 ft | 160 kts | 125° |
| 2026-05-09 02:19 | 4.72592 | -74.18950 | 8891 ft | 161 kts | 127° |
| 2026-05-09 02:19 | 4.71920 | -74.18052 | 8684 ft | 162 kts | 126° |
| 2026-05-09 02:19 | 4.71231 | -74.17151 | 8471 ft | 163 kts | 125° |
| 2026-05-09 02:20 | 4.70567 | -74.16269 | 8377 ft | 146 kts | 126° |
| 2026-05-09 02:20 | 4.70108 | -74.15664 | 8374 ft | 65 kts | 127° |
| 2026-05-09 02:20 | 4.69863 | -74.15343 | 8375 ft | 46 kts | 128° |
| 2026-05-09 02:20 | 4.69762 | -74.15193 | 8372 ft | 20 kts | 111° |
| 2026-05-09 02:21 | 4.69723 | -74.15054 | 8373 ft | 21 kts | 98° |
| 2026-05-09 02:21 | 4.69747 | -74.14932 | 8373 ft | 17 kts | 51° |
| 2026-05-09 02:21 | 4.69837 | -74.14859 | 8373 ft | 17 kts | 38° |
| 2026-05-09 02:21 | 4.69935 | -74.14784 | 8373 ft | 18 kts | 37° |
| 2026-05-09 02:22 | 4.70038 | -74.14706 | 8373 ft | 18 kts | 38° |
| 2026-05-09 02:22 | 4.70108 | -74.14646 | 8373 ft | 10 kts | 65° |
| 2026-05-09 02:22 | 4.70079 | -74.14589 | 8373 ft | 9 kts | 128° |
| 2026-05-09 02:22 | 4.70047 | -74.14549 | 8373 ft | 6 kts | 128° |
| 2026-05-09 02:23 | 4.70025 | -74.14520 | 8373 ft | 4 kts | 127° |
| 2026-05-09 02:23 | 4.69997 | -74.14483 | 8373 ft | 10 kts | 128° |
| 2026-05-09 02:23 | 4.69956 | -74.14429 | 8371 ft | 10 kts | 127° |
| 2026-05-09 02:23 | 4.69937 | -74.14387 | 8371 ft | 4 kts | 76° |
| 2026-05-09 02:24 | 4.69960 | -74.14365 | 8371 ft | 5 kts | 31° |
| 2026-05-09 02:24 | 4.69978 | -74.14352 | 8369 ft | 5 kts | 36° |
| 2026-05-09 02:24 | 4.69993 | -74.14341 | 8372 ft | 2 kts | 37° |
| 2026-05-09 02:24 | 4.69999 | -74.14337 | 8371 ft | 0 kts | 38° |